Stations météo

réclame
Mon MeteoGroup
San Vicente, Espagne (8017): Température de l'air & dewpoint: 16.02.2018 21:00:00 - 22.02.2018 21:00:00 (CET)San Vicente, Espagne (8017): Vitesse du vent & gusts: 16.02.2018 21:00:00 - 22.02.2018 21:00:00 (CET)San Vicente, Espagne (8017): Direction du vent: 16.02.2018 21:00:00 - 22.02.2018 21:00:00 (CET)San Vicente, Espagne (8017): reduced air pressure: 16.02.2018 21:00:00 - 22.02.2018 21:00:00 (CET)San Vicente, Espagne (8017): Quantités de précipitations: 16.02.2018 21:00:00 - 22.02.2018 21:00:00 (CET)
Date & Time tt [°C] td [°C] ff [km/h] ff [knt] fx [km/h] fx [knt] dd ppp [hPa] rr [mm]
22.02.2018 21:00:00 3,9 1,9 10 5 14 7 S 1014,3 0,0
22.02.2018 20:00:00 5,2 1,1 9 5 15 8 SSE 1014,1 0,0
22.02.2018 19:00:00 6,2 1,3 7 4 22 12 ESE 1014,1 -
22.02.2018 18:00:00 7,3 2,3 14 7 25 14 ENE 1014,0 0,0
22.02.2018 17:00:00 7,9 2,5 14 8 23 12 ENE 1014,2 0,0
22.02.2018 16:00:00 8,3 2,7 14 8 23 13 ENE 1014,5 0,0
22.02.2018 15:00:00 7,8 2,9 11 6 21 11 ENE 1014,8 0,0
22.02.2018 14:00:00 8,6 3,6 9 5 24 13 ENE 1015,3 0,0
22.02.2018 13:00:00 8,6 3,6 10 6 19 10 ENE 1015,7 -
22.02.2018 12:00:00 8,2 3,6 9 5 15 8 ENE 1016,1 0,0
22.02.2018 11:00:00 7,4 4,8 1 1 10 5 S 1016,3 0,0
22.02.2018 10:00:00 5,3 3,8 8 5 13 7 SSW 1016,1 0,0
22.02.2018 09:00:00 3,8 2,1 10 5 15 8 SSW 1016,2 0,0
22.02.2018 08:00:00 3,8 1,9 10 5 15 8 SSW 1015,9 0,0
22.02.2018 07:00:00 3,4 1,7 10 5 15 8 S 1016,0 -
22.02.2018 06:00:00 4,7 1,9 8 4 16 9 SSW 1015,7 0,0
22.02.2018 05:00:00 4,5 2,5 5 3 16 9 SSW 1015,8 0,0
22.02.2018 04:00:00 4,1 2,7 8 4 15 8 S 1016,2 0,0
22.02.2018 03:00:00 3,6 2,3 10 6 15 8 SSW 1016,8 0,0
22.02.2018 02:00:00 3,6 2,3 10 6 14 8 SSW 1017,3 0,0
22.02.2018 01:00:00 4,1 2,7 9 5 14 8 SSW 1017,7 -
22.02.2018 00:00:00 4,1 2,7 10 5 14 8 SSW 1018,0 0,0
21.02.2018 23:00:00 4,4 3,0 9 5 13 7 SSW 1018,4 0,0
21.02.2018 22:00:00 4,7 3,4 9 5 10 6 SSW 1019,0 0,0
21.02.2018 21:00:00 5,8 4,1 8 4 10 5 SSW 1018,8 0,0
21.02.2018 20:00:00 6,9 3,8 5 3 16 9 SSE 1018,5 0,0
21.02.2018 19:00:00 7,7 3,4 10 6 19 11 ENE 1018,1 -
21.02.2018 18:00:00 8,1 3,8 12 7 26 14 ENE 1018,1 0,0
21.02.2018 17:00:00 8,1 5,5 16 9 30 16 ENE 1018,0 0,0
21.02.2018 16:00:00 8,2 6,1 16 9 31 17 ENE 1018,0 0,1
21.02.2018 15:00:00 8,4 5,8 14 8 31 17 NE 1018,2 0,0
21.02.2018 14:00:00 8,6 6,5 10 5 25 13 NE 1019,1 0,1
21.02.2018 13:00:00 8,0 6,4 5 3 17 9 N 1019,6 -
21.02.2018 12:00:00 8,0 5,9 8 4 22 12 ENE 1020,3 0,4
21.02.2018 11:00:00 7,9 5,3 13 7 36 20 N 1020,4 0,3
21.02.2018 10:00:00 7,3 5,3 27 15 39 21 N 1020,5 0,3
21.02.2018 09:00:00 8,2 5,1 32 17 40 21 N 1020,6 0,0
21.02.2018 08:00:00 8,4 3,2 18 10 31 17 N 1020,3 0,0
21.02.2018 07:00:00 8,9 4,3 22 12 44 24 N 1020,3 -
21.02.2018 06:00:00 9,2 3,8 29 16 38 21 N 1020,3 0,0
21.02.2018 05:00:00 9,2 5,1 35 19 49 26 N 1020,7 0,0
21.02.2018 04:00:00 9,7 6,5 34 19 45 24 N 1021,0 0,0
21.02.2018 03:00:00 10,0 5,6 16 8 49 26 NNW 1021,4 0,0
21.02.2018 02:00:00 9,8 6,7 26 14 46 25 N 1021,4 0,0
21.02.2018 01:00:00 9,8 7,7 29 15 49 26 N 1021,3 -
21.02.2018 00:00:00 9,5 8,4 31 17 42 23 N 1021,7 0,3
20.02.2018 23:00:00 10,0 8,8 14 8 29 15 W 1022,2 0,1
20.02.2018 22:00:00 10,3 9,0 12 7 21 11 W 1022,5 0,0
20.02.2018 21:00:00 10,3 9,0 13 7 26 14 WNW 1023,0 0,0
20.02.2018 20:00:00 10,2 8,9 10 6 25 14 W 1023,5 0,0
20.02.2018 19:00:00 10,1 9,0 13 7 24 13 W 1023,4 -
20.02.2018 18:00:00 9,6 8,4 23 12 42 23 WNW 1023,4 1,3
20.02.2018 17:00:00 10,4 9,0 21 11 32 17 W 1023,5 0,0
20.02.2018 16:00:00 10,9 9,7 20 11 35 19 W 1023,7 0,0
20.02.2018 15:00:00 9,4 8,1 23 13 35 19 W 1024,1 0,4
20.02.2018 14:00:00 9,1 7,8 25 13 43 23 W 1024,3 0,4
20.02.2018 13:00:00 10,9 9,0 21 12 34 18 W 1024,5 -
20.02.2018 12:00:00 11,0 8,9 18 10 32 18 W 1024,6 0,0
20.02.2018 11:00:00 10,5 8,9 22 12 31 17 W 1024,7 0,0
20.02.2018 10:00:00 9,7 8,1 18 10 29 16 W 1024,4 0,2
20.02.2018 09:00:00 10,1 8,7 16 9 35 19 W 1024,1 0,0
20.02.2018 08:00:00 10,4 8,8 19 10 36 19 WNW 1023,5 0,1
20.02.2018 07:00:00 9,9 8,4 18 10 35 19 W 1023,3 -
20.02.2018 06:00:00 10,6 8,9 17 9 36 19 NW 1023,1 0,0
20.02.2018 05:00:00 10,1 8,7 24 13 37 20 NW 1023,3 0,0
20.02.2018 04:00:00 10,5 9,3 27 15 36 20 NW 1023,2 0,7
20.02.2018 03:00:00 10,4 9,3 12 6 40 22 NW 1023,4 0,0
20.02.2018 02:00:00 10,2 9,2 18 10 35 19 W 1023,1 0,3
20.02.2018 01:00:00 9,9 8,8 21 11 35 19 W 1023,2 -
20.02.2018 00:00:00 9,9 8,8 19 10 32 17 W 1022,9 0,1
19.02.2018 23:00:00 9,8 8,8 15 8 29 16 W 1023,3 0,1
19.02.2018 22:00:00 9,6 8,5 18 10 31 17 W 1023,4 0,3
19.02.2018 21:00:00 9,6 8,5 15 8 34 18 W 1023,3 0,8
19.02.2018 20:00:00 9,8 8,8 22 12 37 20 W 1023,2 2,3
19.02.2018 19:00:00 10,4 9,3 22 12 39 21 W 1022,8 -
19.02.2018 18:00:00 10,6 9,7 24 13 36 20 WNW 1022,4 2,4
19.02.2018 17:00:00 10,6 9,6 21 11 34 19 WNW 1022,4 0,3
19.02.2018 16:00:00 10,7 9,6 24 13 32 17 WNW 1022,3 0,8
19.02.2018 15:00:00 10,3 9,2 22 12 36 19 NW 1022,4 3,6
19.02.2018 14:00:00 10,3 9,2 21 12 33 18 W 1022,6 2,4
19.02.2018 13:00:00 10,2 9,2 21 11 35 19 W 1023,0 -
19.02.2018 12:00:00 10,2 9,2 22 12 34 18 W 1022,8 2,8
19.02.2018 11:00:00 10,1 9,0 21 11 35 19 W 1022,6 2,2
19.02.2018 10:00:00 9,8 8,8 22 12 36 19 W 1022,5 5,4
19.02.2018 09:00:00 9,7 8,7 18 10 31 17 W 1022,5 1,3
19.02.2018 08:00:00 9,5 8,4 16 9 34 18 W 1022,4 2,1
19.02.2018 07:00:00 9,5 8,4 17 9 35 19 W 1022,3 -
19.02.2018 06:00:00 9,6 8,5 16 9 29 16 W 1022,2 1,2
19.02.2018 05:00:00 9,6 8,5 15 8 33 18 W 1022,2 0,0
19.02.2018 04:00:00 9,6 8,5 18 10 32 18 W 1022,4 1,3
19.02.2018 03:00:00 9,5 8,3 6 3 19 11 W 1022,8 3,5
19.02.2018 02:00:00 9,3 8,1 8 4 23 13 W 1023,3 4,2
19.02.2018 01:00:00 9,5 8,0 2 1 22 12 SW 1023,8 -
19.02.2018 00:00:00 10,0 8,4 10 5 26 14 W 1024,0 0,6
18.02.2018 23:00:00 10,1 8,5 13 7 24 13 W 1024,5 0,2
18.02.2018 22:00:00 9,8 8,4 11 6 29 16 W 1024,7 0,3
18.02.2018 21:00:00 10,0 8,8 9 5 25 14 W 1025,3 0,1
18.02.2018 20:00:00 10,4 9,2 20 11 30 16 W 1025,7 1,1
18.02.2018 19:00:00 10,7 9,2 18 10 30 16 W 1025,7 -
18.02.2018 18:00:00 11,0 9,4 17 9 29 16 W 1025,6 0,0
18.02.2018 17:00:00 11,2 9,3 20 11 31 17 W 1025,8 0,0
18.02.2018 16:00:00 11,6 9,0 19 10 31 17 WNW 1025,9 0,0
18.02.2018 15:00:00 11,7 7,6 17 9 29 15 WNW 1026,3 0,0
18.02.2018 14:00:00 12,1 7,6 14 8 24 13 WNW 1026,5 0,0
18.02.2018 13:00:00 11,5 6,8 14 8 23 12 W 1027,2 -
18.02.2018 12:00:00 9,9 5,9 3 1 10 5 SW 1027,8 0,0
18.02.2018 11:00:00 9,1 5,0 2 1 13 7 SSW 1028,1 0,0
18.02.2018 10:00:00 8,2 4,6 5 3 15 8 SSW 1027,8 0,0
18.02.2018 09:00:00 6,8 3,8 9 5 18 10 SSW 1027,5 0,0
18.02.2018 08:00:00 6,2 3,8 9 5 18 10 SSW 1027,5 0,0
18.02.2018 07:00:00 5,2 3,0 10 5 19 10 SSW 1027,7 -
18.02.2018 06:00:00 5,6 3,0 10 5 17 9 SSW 1028,0 0,0
18.02.2018 05:00:00 5,7 3,2 5 3 16 9 SSW 1028,3 0,0
18.02.2018 04:00:00 5,6 3,4 8 4 17 9 SSW 1028,5 0,0
18.02.2018 03:00:00 5,4 3,4 9 5 17 9 SSW 1029,3 0,0
18.02.2018 02:00:00 5,7 3,9 5 3 16 9 SSW 1029,5 0,0
18.02.2018 01:00:00 6,0 4,3 5 3 15 8 SSW 1029,7 -
18.02.2018 00:00:00 6,7 4,6 5 3 13 7 SW 1029,8 0,0
17.02.2018 23:00:00 7,3 5,3 5 3 13 7 SW 1029,7 0,0
17.02.2018 22:00:00 7,3 5,5 5 3 11 6 SW 1029,5 0,0
17.02.2018 21:00:00 8,0 5,9 3 2 10 6 SW 1029,3 0,0
17.02.2018 20:00:00 8,7 6,1 4 2 16 9 SSW 1029,2 0,0
17.02.2018 19:00:00 9,9 6,8 9 5 19 10 WNW 1029,0 -
17.02.2018 18:00:00 10,5 6,8 7 4 21 11 NNW 1028,7 0,0
17.02.2018 17:00:00 10,7 6,8 9 5 23 12 NNW 1028,6 0,0
17.02.2018 16:00:00 11,2 8,1 9 5 14 8 W 1028,5 0,0
17.02.2018 15:00:00 9,8 7,0 5 3 37 20 WSW 1028,7 0,1
17.02.2018 14:00:00 11,9 8,4 20 11 30 16 WNW 1028,6 0,0
17.02.2018 13:00:00 11,6 7,6 13 7 29 16 WNW 1029,0 -
17.02.2018 12:00:00 11,6 7,8 16 8 31 17 W 1028,8 0,0
17.02.2018 11:00:00 10,0 7,1 21 11 36 19 W 1028,3 0,0
17.02.2018 10:00:00 9,8 6,8 8 4 29 16 W 1027,5 0,0
17.02.2018 09:00:00 9,7 7,7 14 7 28 15 W 1027,3 0,0
17.02.2018 08:00:00 8,3 5,9 4 2 23 13 SSW 1026,6 0,0
17.02.2018 07:00:00 9,0 6,8 5 3 21 11 WSW 1025,9 -
17.02.2018 06:00:00 9,2 7,3 13 7 28 15 W 1025,7 0,0
17.02.2018 05:00:00 8,9 7,8 16 9 41 22 W 1025,5 0,1
17.02.2018 04:00:00 9,4 8,4 13 7 30 16 W 1025,3 0,1
17.02.2018 03:00:00 9,1 8,0 18 10 36 19 W 1025,2 0,6
17.02.2018 02:00:00 9,7 8,7 24 13 48 26 WNW 1024,6 0,6
17.02.2018 01:00:00 10,1 9,2 23 13 48 26 W 1024,0 -
17.02.2018 00:00:00 11,2 10,0 22 12 36 19 W 1023,2 1,3
16.02.2018 23:00:00 11,0 9,9 23 12 35 19 W 1022,3 4,5
16.02.2018 22:00:00 11,8 10,6 4 2 9 5 SSE 1020,7 2,4
16.02.2018 21:00:00 11,8 10,6 1 1 9 5 S 1020,8 1,9

tt = Température de l'air
td = dewpoint
ff = Vitesse du vent
fx = gusts
dd = Direction du vent
ppp = reduced air pressure
rr = Quantités de précipitations

stations d'obs. à proximité